Time;durP1;ratioP1;P1;durP2;ratioP2;P2;SDS_P1;SDS_P2;PMS_P1;PMS_P2;Temp;Humidity;BMP_temperature;BMP_pressure;BME280_temperature;BME280_humidity;BME280_pressure;Samples;Min_cycle;Max_cycle;Signal;HPM_P1;HPM_P2
2022/10/18 00:02:27;;;;;;;6.15;5.57;;;;;;;19.33;86.14;100996.69;10396716;28;20053;-70
2022/10/18 00:07:29;;;;;;;8.52;5.63;;;;;;;19.34;85.58;101011.88;10392751;28;20051;-72
2022/10/18 00:12:33;;;;;;;13.80;6.85;;;;;;;19.31;85.71;100998.72;10397128;28;20069;-70
2022/10/18 00:17:35;;;;;;;9.55;5.93;;;;;;;19.35;85.54;100994.69;10394522;28;20045;-72
2022/10/18 00:22:37;;;;;;;9.05;5.57;;;;;;;19.31;85.59;100992.47;10396629;28;20567;-73
2022/10/18 00:27:39;;;;;;;6.27;5.67;;;;;;;19.28;85.91;100993.63;10392454;28;20781;-71
2022/10/18 00:32:41;;;;;;;7.03;5.82;;;;;;;19.28;85.86;100987.41;10394774;28;20067;-70
2022/10/18 00:37:42;;;;;;;6.13;5.53;;;;;;;19.24;86.52;100987.69;10391735;28;20737;-70
2022/10/18 00:42:43;;;;;;;6.53;5.55;;;;;;;19.24;87.02;100987.69;10392424;28;20052;-72
2022/10/18 00:47:50;;;;;;;10.25;5.35;;;;;;;19.25;87.61;100988.56;10392950;28;20759;-71
2022/10/18 00:52:57;;;;;;;6.38;5.70;;;;;;;19.20;88.12;100980.09;10391423;28;20813;-71
2022/10/18 00:57:59;;;;;;;6.65;5.78;;;;;;;19.13;89.69;100979.06;10396092;28;20048;-71
2022/10/18 01:03:01;;;;;;;10.75;6.22;;;;;;;19.08;89.51;100968.78;10401278;28;20106;-71
2022/10/18 01:08:11;;;;;;;7.10;6.03;;;;;;;19.07;90.04;100972.47;10401391;28;20057;-70
2022/10/18 01:13:48;;;;;;;6.75;5.88;;;;;;;19.10;90.04;100968.59;10401692;28;20048;-70
2022/10/18 01:19:01;;;;;;;10.68;5.50;;;;;;;19.04;89.95;100970.94;10382540;28;20051;-70
2022/10/18 01:24:34;;;;;;;8.82;6.15;;;;;;;19.01;90.15;100963.16;10387062;28;20045;-72
2022/10/18 01:29:54;;;;;;;9.30;7.60;;;;;;;18.93;90.50;100968.53;10354332;28;20053;-71
2022/10/18 01:35:01;;;;;;;11.57;9.63;;;;;;;18.85;90.81;100945.03;10418191;28;20065;-71
2022/10/18 01:40:05;;;;;;;11.27;9.00;;;;;;;18.83;92.18;100955.13;10405978;28;20041;-73
2022/10/18 01:45:08;;;;;;;8.82;6.97;;;;;;;18.90;91.16;100958.06;10386072;28;20048;-72
2022/10/18 01:50:10;;;;;;;10.80;6.50;;;;;;;18.91;90.92;100959.72;10393408;28;20825;-72
2022/10/18 01:55:11;;;;;;;9.35;5.88;;;;;;;18.98;90.55;100958.09;10392031;28;20049;-72
2022/10/18 02:00:16;;;;;;;7.05;5.88;;;;;;;18.94;90.24;100948.63;10393845;28;20064;-71
2022/10/18 02:05:25;;;;;;;6.78;5.57;;;;;;;18.93;90.85;100946.09;10394099;28;20053;-71
2022/10/18 02:10:42;;;;;;;8.23;5.38;;;;;;;18.93;90.68;100946.94;10392348;28;20057;-71
2022/10/18 02:15:46;;;;;;;7.65;6.00;;;;;;;18.93;90.68;100943.38;10397145;28;20398;-72
2022/10/18 02:20:50;;;;;;;8.60;5.60;;;;;;;18.85;90.94;100936.94;10398004;28;20135;-73
2022/10/18 02:25:52;;;;;;;7.90;5.50;;;;;;;18.84;90.63;100931.69;10396429;28;20052;-70
2022/10/18 02:31:11;;;;;;;7.28;5.93;;;;;;;18.83;90.79;100935.41;10396768;28;20049;-72
2022/10/18 02:36:21;;;;;;;8.48;6.05;;;;;;;18.75;90.80;100921.84;10396251;28;20056;-72
2022/10/18 02:41:25;;;;;;;7.70;6.20;;;;;;;18.76;90.85;100926.25;10411497;28;20048;-72
2022/10/18 02:46:26;;;;;;;9.88;6.32;;;;;;;18.74;90.74;100915.63;10410715;28;20057;-71
2022/10/18 02:51:32;;;;;;;9.32;6.25;;;;;;;18.72;90.51;100915.78;10397277;28;20076;-72
2022/10/18 02:56:35;;;;;;;9.00;6.25;;;;;;;18.73;90.25;100933.69;10396834;28;20053;-72
2022/10/18 03:01:36;;;;;;;10.93;6.85;;;;;;;18.74;90.83;100931.81;10396764;28;20045;-71
2022/10/18 03:06:37;;;;;;;10.18;7.03;;;;;;;18.80;90.58;100925.78;10396025;28;20110;-72
2022/10/18 03:11:39;;;;;;;9.05;6.45;;;;;;;18.72;90.79;100920.34;10396837;28;20052;-72
2022/10/18 03:16:40;;;;;;;8.43;6.65;;;;;;;18.69;90.81;100929.59;10401570;28;20045;-71
2022/10/18 03:21:41;;;;;;;9.07;6.35;;;;;;;18.67;91.11;100936.97;10433309;28;20052;-70
2022/10/18 03:26:43;;;;;;;8.20;6.35;;;;;;;18.70;91.05;100969.03;10403309;28;20660;-70
2022/10/18 03:31:44;;;;;;;11.60;6.18;;;;;;;18.78;91.86;100970.09;10398208;28;20092;-70
2022/10/18 03:36:45;;;;;;;8.30;5.97;;;;;;;18.80;91.58;100995.06;10396996;28;20056;-70
2022/10/18 03:41:46;;;;;;;11.68;6.63;;;;;;;18.49;92.96;101030.56;10397060;28;20087;-71
2022/10/18 03:46:48;;;;;;;17.13;9.70;;;;;;;18.38;100.00;101008.22;10393030;28;20053;-71
2022/10/18 03:51:49;;;;;;;11.63;8.65;;;;;;;18.46;100.00;100993.13;10395416;28;20053;-71
2022/10/18 03:56:50;;;;;;;8.48;4.97;;;;;;;18.32;100.00;100981.91;10401147;28;20078;-69
2022/10/18 04:01:52;;;;;;;3.60;2.28;;;;;;;18.25;100.00;100971.91;10394665;28;20068;-69
2022/10/18 04:06:53;;;;;;;4.68;1.75;;;;;;;18.26;98.06;100987.09;10393554;28;20171;-70
2022/10/18 04:11:54;;;;;;;2.95;1.30;;;;;;;18.22;96.88;100986.53;10399127;28;20053;-69
2022/10/18 04:16:56;;;;;;;3.55;1.95;;;;;;;18.18;99.72;100958.25;10400031;28;20053;-70
2022/10/18 04:21:57;;;;;;;3.72;2.20;;;;;;;18.16;100.00;100941.38;10396338;28;20546;-71
2022/10/18 04:26:58;;;;;;;3.30;1.67;;;;;;;18.17;99.87;100956.53;10390818;28;20420;-70
2022/10/18 04:32:00;;;;;;;4.22;1.20;;;;;;;18.19;98.87;100971.56;10393219;28;20045;-70
2022/10/18 04:37:01;;;;;;;4.10;1.45;;;;;;;18.16;96.92;101046.44;10392566;28;20049;-71
2022/10/18 04:42:02;;;;;;;2.22;1.48;;;;;;;18.09;99.33;100986.09;10395053;28;20045;-71
2022/10/18 04:47:04;;;;;;;2.50;1.17;;;;;;;18.07;100.00;101010.50;10423537;28;20487;-71
2022/10/18 04:52:05;;;;;;;2.83;1.30;;;;;;;18.01;98.75;101014.66;10392667;28;21073;-69
2022/10/18 04:57:06;;;;;;;2.67;1.38;;;;;;;18.05;99.99;101012.50;10374835;28;20058;-73
2022/10/18 05:02:08;;;;;;;2.50;1.40;;;;;;;18.08;100.00;101006.81;10378125;28;20056;-71
2022/10/18 05:07:09;;;;;;;5.68;1.58;;;;;;;18.10;100.00;101009.34;10375500;28;20053;-72
2022/10/18 05:12:10;;;;;;;2.20;1.13;;;;;;;18.09;100.00;101013.03;10389312;28;20049;-72
2022/10/18 05:17:11;;;;;;;2.58;1.40;;;;;;;18.02;100.00;101002.88;10403828;28;20060;-73
2022/10/18 05:22:13;;;;;;;2.55;1.40;;;;;;;18.05;100.00;101000.88;10382592;28;20058;-71
2022/10/18 05:27:14;;;;;;;2.83;1.58;;;;;;;18.02;100.00;100984.00;10380105;28;20057;-71
2022/10/18 05:32:15;;;;;;;4.72;1.35;;;;;;;18.07;100.00;100978.16;10379216;28;20060;-71
2022/10/18 05:37:17;;;;;;;2.97;1.20;;;;;;;18.06;99.86;100978.31;10371623;28;20622;-75
2022/10/18 05:42:18;;;;;;;1.80;1.13;;;;;;;18.00;99.69;100956.41;10371888;28;20053;-73
2022/10/18 05:47:20;;;;;;;4.13;1.70;;;;;;;17.93;100.00;100955.31;10375869;28;20434;-72
2022/10/18 05:52:21;;;;;;;4.50;1.67;;;;;;;17.89;100.00;100959.31;10391819;28;20055;-71
2022/10/18 05:57:23;;;;;;;3.85;1.75;;;;;;;17.78;99.72;100957.66;10386382;28;20057;-70
2022/10/18 06:02:24;;;;;;;3.17;1.75;;;;;;;17.87;100.00;100960.47;10377078;28;20045;-74
2022/10/18 06:07:25;;;;;;;3.85;1.70;;;;;;;17.93;100.00;100954.47;10379950;28;20061;-70
2022/10/18 06:12:27;;;;;;;4.32;1.98;;;;;;;17.92;100.00;100969.78;10391739;28;20053;-71
2022/10/18 06:17:28;;;;;;;4.07;1.80;;;;;;;17.78;99.17;101029.53;10377917;28;20053;-71
2022/10/18 06:22:33;;;;;;;6.05;2.83;;;;;;;17.78;100.00;101018.78;10377820;28;20056;-74
2022/10/18 06:27:34;;;;;;;4.38;2.50;;;;;;;17.95;100.00;101017.94;10379604;28;20060;-71
2022/10/18 06:32:35;;;;;;;3.85;1.95;;;;;;;17.88;100.00;100997.13;10385543;28;20659;-72
2022/10/18 06:37:37;;;;;;;5.25;2.58;;;;;;;17.95;100.00;100999.09;10383230;28;20060;-73
2022/10/18 06:42:39;;;;;;;3.58;1.80;;;;;;;18.01;100.00;101000.34;10380976;28;20045;-72
2022/10/18 06:47:40;;;;;;;4.45;2.05;;;;;;;17.93;100.00;101014.56;10378534;28;20050;-72
2022/10/18 06:52:42;;;;;;;4.70;2.70;;;;;;;18.01;100.00;101017.38;10381457;28;20083;-71
2022/10/18 06:57:43;;;;;;;4.43;2.80;;;;;;;18.09;100.00;101023.81;10379731;28;20057;-70
2022/10/18 07:02:44;;;;;;;5.72;2.80;;;;;;;18.04;100.00;101043.13;10376037;28;20055;-71
2022/10/18 07:07:46;;;;;;;4.88;2.92;;;;;;;18.02;100.00;101067.53;10376272;28;20056;-72
2022/10/18 07:12:47;;;;;;;7.68;2.70;;;;;;;17.98;100.00;101066.13;10380455;28;20049;-72
2022/10/18 07:17:49;;;;;;;5.60;2.97;;;;;;;18.07;100.00;101060.84;10380968;28;20049;-71
2022/10/18 07:22:54;;;;;;;3.88;2.42;;;;;;;18.12;100.00;101045.03;10384580;28;20067;-70
2022/10/18 07:27:56;;;;;;;4.88;2.50;;;;;;;18.11;100.00;101038.00;10380639;28;20917;-70
2022/10/18 07:32:57;;;;;;;3.38;2.20;;;;;;;18.22;100.00;101056.59;10378986;28;20052;-71
2022/10/18 07:37:58;;;;;;;3.60;2.90;;;;;;;18.23;100.00;101069.09;10419192;28;20057;-73
2022/10/18 07:43:00;;;;;;;5.05;2.30;;;;;;;18.36;100.00;101072.25;10419623;28;20550;-75
2022/10/18 07:48:05;;;;;;;4.40;2.95;;;;;;;18.40;100.00;101080.00;10403140;28;20056;-74
2022/10/18 07:53:06;;;;;;;4.13;2.70;;;;;;;18.46;100.00;101074.84;10402381;28;20667;-76
2022/10/18 07:58:07;;;;;;;5.97;2.90;;;;;;;18.44;100.00;101084.94;10418103;28;20055;-71
2022/10/18 08:03:09;;;;;;;3.72;3.15;;;;;;;18.59;100.00;101073.63;10398879;28;20049;-73
2022/10/18 08:08:10;;;;;;;4.22;3.25;;;;;;;18.58;100.00;101064.66;10417879;28;20474;-73
2022/10/18 08:13:11;;;;;;;4.53;3.40;;;;;;;18.79;100.00;101074.25;10399667;28;20079;-73
2022/10/18 08:18:13;;;;;;;5.72;3.20;;;;;;;18.68;100.00;101062.72;10416270;28;20049;-72
2022/10/18 08:23:14;;;;;;;4.13;3.05;;;;;;;18.86;100.00;101075.38;10377781;28;20069;-71
2022/10/18 08:28:16;;;;;;;6.03;3.67;;;;;;;18.88;100.00;101089.53;10372169;28;21027;-71
2022/10/18 08:33:17;;;;;;;4.60;3.67;;;;;;;18.97;100.00;101088.56;10380447;28;20060;-74
2022/10/18 08:38:18;;;;;;;4.40;2.80;;;;;;;18.99;98.92;101100.06;10419068;28;20427;-73
2022/10/18 08:43:31;;;;;;;3.92;2.97;;;;;;;19.09;99.50;101102.66;10414194;28;20430;-72
2022/10/18 08:48:39;;;;;;;3.83;2.70;;;;;;;19.14;98.92;101113.84;10420485;28;20677;-75
2022/10/18 08:53:58;;;;;;;3.08;2.58;;;;;;;19.11;98.49;101113.28;10411465;28;20056;-70
2022/10/18 08:59:05;;;;;;;3.05;2.65;;;;;;;19.14;98.63;101112.97;10410883;28;20487;-70
2022/10/18 09:04:15;;;;;;;4.18;3.78;;;;;;;19.11;98.35;101100.66;10409560;28;20052;-72
2022/10/18 09:09:41;;;;;;;5.78;4.45;;;;;;;19.19;98.25;101102.56;10415247;28;20048;-71
2022/10/18 09:15:04;;;;;;;5.22;3.70;;;;;;;19.24;98.03;101117.25;10416792;28;20044;-70
2022/10/18 09:20:20;;;;;;;5.35;4.82;;;;;;;19.29;96.88;101124.91;10396096;28;20064;-70
2022/10/18 09:25:35;;;;;;;3.63;3.00;;;;;;;19.40;94.52;101121.91;10401973;28;20052;-70
2022/10/18 09:31:06;;;;;;;4.05;3.10;;;;;;;19.67;93.53;101122.72;10407331;28;20517;-70
2022/10/18 09:36:12;;;;;;;4.43;2.90;;;;;;;19.86;91.93;101129.75;10354262;28;20059;-70
2022/10/18 09:41:27;;;;;;;2.92;2.20;;;;;;;19.97;92.32;101128.59;10387172;28;20041;-69
2022/10/18 09:46:38;;;;;;;2.45;1.10;;;;;;;19.98;87.93;101130.28;10402033;28;20056;-72
2022/10/18 09:51:41;;;;;;;2.38;1.70;;;;;;;20.13;86.32;101130.50;10379305;28;20053;-70
2022/10/18 09:57:01;;;;;;;1.63;1.10;;;;;;;20.48;85.40;101125.84;10382512;28;20079;-70
2022/10/18 10:02:03;;;;;;;2.03;1.10;;;;;;;20.31;86.47;101130.38;10401216;28;20052;-71
2022/10/18 10:07:10;;;;;;;2.83;1.30;;;;;;;20.30;88.81;101131.41;10402249;28;21229;-71
2022/10/18 10:12:24;;;;;;;3.78;1.38;;;;;;;20.26;86.48;101148.94;10404756;28;20191;-71
2022/10/18 10:17:29;;;;;;;2.28;1.52;;;;;;;19.93;87.90;101144.28;10417531;28;20040;-71
2022/10/18 10:22:37;;;;;;;1.58;0.93;;;;;;;19.86;91.17;101145.09;10403900;28;20064;-69
2022/10/18 10:27:44;;;;;;;1.60;1.25;;;;;;;19.58;89.96;101156.09;10424582;28;20049;-72
2022/10/18 10:32:49;;;;;;;3.90;1.10;;;;;;;19.37;92.17;101153.78;10420986;28;20049;-70
2022/10/18 10:37:53;;;;;;;4.32;1.27;;;;;;;19.55;94.40;101151.03;10415232;28;20064;-70
2022/10/18 10:43:02;;;;;;;3.35;1.63;;;;;;;19.86;91.12;101154.06;10418944;28;20040;-70
2022/10/18 10:48:20;;;;;;;4.25;1.70;;;;;;;20.38;89.63;101153.03;10422197;28;20053;-71
2022/10/18 10:53:34;;;;;;;1.52;1.20;;;;;;;20.75;87.14;101154.47;10406563;28;20052;-70
2022/10/18 10:58:39;;;;;;;2.65;0.80;;;;;;;20.72;85.37;101160.22;10389232;28;20052;-71
2022/10/18 11:03:46;;;;;;;1.90;1.15;;;;;;;20.77;86.64;101163.25;10376206;28;20059;-71
2022/10/18 11:08:51;;;;;;;3.47;1.15;;;;;;;21.25;84.22;101159.84;10377408;28;20288;-71
2022/10/18 11:14:03;;;;;;;2.95;1.23;;;;;;;21.17;84.55;101168.84;10380029;28;20443;-71
2022/10/18 11:19:31;;;;;;;2.55;1.08;;;;;;;21.19;84.79;101159.50;10376384;28;20487;-71
2022/10/18 11:24:34;;;;;;;2.75;0.82;;;;;;;20.81;85.76;101158.38;10379057;28;20432;-70
2022/10/18 11:29:57;;;;;;;0.82;0.65;;;;;;;20.81;87.66;101148.38;10381453;28;20059;-71
2022/10/18 11:35:22;;;;;;;1.73;0.70;;;;;;;20.77;86.32;101157.84;10400834;28;20041;-69
2022/10/18 11:40:49;;;;;;;1.60;0.60;;;;;;;20.70;88.21;101154.09;10380415;28;20048;-69
2022/10/18 11:46:03;;;;;;;2.13;0.80;;;;;;;20.56;88.62;101160.16;10397544;28;20157;-70
2022/10/18 11:51:15;;;;;;;0.93;0.85;;;;;;;20.46;89.94;101161.16;10397287;28;20661;-70
2022/10/18 11:56:49;;;;;;;1.33;0.75;;;;;;;20.54;90.82;101143.28;10397692;28;20931;-70
2022/10/18 12:02:12;;;;;;;1.40;0.85;;;;;;;20.65;89.63;101154.59;10400971;28;20523;-71
2022/10/18 12:07:15;;;;;;;0.70;0.30;;;;;;;20.61;90.11;101152.38;10414834;28;20730;-70
2022/10/18 12:12:31;;;;;;;1.10;0.20;;;;;;;20.72;88.67;101143.16;10414155;28;20380;-69
2022/10/18 12:17:39;;;;;;;2.78;0.43;;;;;;;20.62;88.35;101145.97;10404029;28;20735;-70
2022/10/18 12:23:05;;;;;;;1.13;0.10;;;;;;;21.86;81.41;101146.66;10404496;28;20681;-70
2022/10/18 12:28:49;;;;;;;1.83;1.55;;;;;;;22.07;78.83;101144.19;10419000;28;20049;-69
2022/10/18 12:33:57;;;;;;;0.70;0.30;;;;;;;21.76;79.38;101133.31;10318649;28;20487;-71
2022/10/18 12:39:01;;;;;;;0.55;0.10;;;;;;;21.24;82.09;101136.50;10420322;28;20067;-70
2022/10/18 12:44:06;;;;;;;0.82;0.20;;;;;;;21.13;82.20;101129.56;10417135;28;20075;-71
2022/10/18 12:49:12;;;;;;;1.10;0.63;;;;;;;27.29;58.92;101126.53;10420534;28;20065;-72
2022/10/18 12:54:17;;;;;;;0.30;0.10;;;;;;;29.93;47.32;101121.53;10418030;28;20743;-72
2022/10/18 12:59:18;;;;;;;0.95;0.28;;;;;;;29.83;47.54;101129.47;10416797;28;20049;-73
2022/10/18 13:04:26;;;;;;;0.50;0.20;;;;;;;27.61;51.52;101129.41;10400691;28;20617;-71
2022/10/18 13:09:29;;;;;;;0.40;0.00;;;;;;;24.96;58.36;101117.38;10390988;28;20052;-71
2022/10/18 13:14:53;;;;;;;0.45;0.10;;;;;;;23.33;67.79;101133.06;10404359;28;20407;-72
2022/10/18 13:20:26;;;;;;;0.82;0.15;;;;;;;22.28;72.96;101131.00;10367393;28;20040;-73
2022/10/18 13:25:44;;;;;;;0.80;0.20;;;;;;;21.84;75.04;101127.88;10378375;28;20041;-71
2022/10/18 13:30:54;;;;;;;0.60;0.20;;;;;;;21.53;77.45;101127.81;10375869;28;20056;-70
2022/10/18 13:36:02;;;;;;;1.98;0.63;;;;;;;21.57;77.81;101131.03;10374255;28;20653;-72
2022/10/18 13:41:08;;;;;;;0.50;0.20;;;;;;;22.63;73.36;101131.50;10373334;28;20724;-75
2022/10/18 13:46:09;;;;;;;0.52;0.20;;;;;;;23.21;69.20;101127.25;10376791;28;20133;-72
2022/10/18 13:51:35;;;;;;;0.10;0.10;;;;;;;26.48;57.50;101127.56;10375501;28;20054;-72
2022/10/18 13:56:50;;;;;;;1.42;1.00;;;;;;;29.61;49.31;101128.00;10376751;28;20048;-73
2022/10/18 14:02:11;;;;;;;0.43;0.10;;;;;;;34.29;37.97;101127.44;10375204;28;20543;-73
2022/10/18 14:07:17;;;;;;;0.68;0.10;;;;;;;37.02;31.42;101131.44;10371262;28;20053;-74
2022/10/18 14:12:33;;;;;;;0.38;0.10;;;;;;;36.76;30.69;101120.38;10381613;28;20565;-73
2022/10/18 14:18:26;;;;;;;2.15;0.20;;;;;;;35.72;32.04;101122.09;10382227;28;20056;-75
2022/10/18 14:23:40;;;;;;;0.68;0.30;;;;;;;35.18;34.23;101127.91;10263251;28;20050;-72
2022/10/18 14:28:42;;;;;;;0.30;0.10;;;;;;;37.55;30.63;101120.75;10368087;28;20121;-74
2022/10/18 14:34:01;;;;;;;0.20;0.00;;;;;;;38.20;29.24;101117.09;10383081;28;20132;-75
2022/10/18 14:39:05;;;;;;;0.38;0.00;;;;;;;36.80;29.38;101118.72;10382158;28;20053;-74
2022/10/18 14:44:12;;;;;;;1.60;0.20;;;;;;;33.48;35.26;101123.47;10382626;28;20049;-74
2022/10/18 14:49:15;;;;;;;0.50;0.20;;;;;;;30.45;40.03;101127.34;10378833;28;20837;-74
2022/10/18 14:54:20;;;;;;;0.68;0.20;;;;;;;27.84;46.29;101140.69;10382240;28;20044;-70
2022/10/18 14:59:26;;;;;;;1.70;0.30;;;;;;;25.99;52.73;101130.38;10379728;28;20647;-72
2022/10/18 15:04:31;;;;;;;0.73;0.13;;;;;;;25.11;56.77;101140.94;10383033;28;20116;-72
2022/10/18 15:09:35;;;;;;;0.50;0.30;;;;;;;24.33;58.24;101137.06;10373024;28;20904;-70
2022/10/18 15:14:39;;;;;;;1.58;0.20;;;;;;;23.85;62.82;101135.84;10377304;28;20068;-70
2022/10/18 15:19:52;;;;;;;3.17;0.70;;;;;;;23.35;64.55;101136.44;10380416;28;20057;-70
2022/10/18 15:25:15;;;;;;;0.45;0.30;;;;;;;22.93;66.63;101149.53;10378933;28;21076;-70
2022/10/18 15:30:23;;;;;;;1.05;0.20;;;;;;;22.53;68.39;101153.44;10378093;28;20033;-70
2022/10/18 15:35:30;;;;;;;2.25;0.30;;;;;;;22.17;70.41;101146.69;10384910;28;20057;-69
2022/10/18 15:40:34;;;;;;;1.20;0.30;;;;;;;21.98;70.64;101144.38;10383206;28;20037;-69
2022/10/18 15:45:44;;;;;;;2.47;0.40;;;;;;;21.84;73.15;101148.69;10379396;28;20057;-70
2022/10/18 15:51:23;;;;;;;1.88;0.52;;;;;;;21.67;74.52;101153.34;10382581;28;20166;-70
2022/10/18 15:56:28;;;;;;;2.22;0.43;;;;;;;21.58;74.73;101159.81;10367890;28;20072;-72
2022/10/18 16:01:43;;;;;;;2.08;0.55;;;;;;;21.44;76.10;101151.34;10378958;28;20504;-69
2022/10/18 16:06:44;;;;;;;1.33;0.50;;;;;;;21.36;76.73;101152.22;10375762;28;20112;-72
2022/10/18 16:11:48;;;;;;;2.83;0.80;;;;;;;21.29;76.45;101145.78;10374756;28;20049;-71
2022/10/18 16:17:02;;;;;;;2.25;0.60;;;;;;;21.23;77.65;101145.63;10378631;28;20458;-70
2022/10/18 16:22:05;;;;;;;2.72;1.50;;;;;;;21.08;78.47;101146.34;10374783;28;20052;-72
2022/10/18 16:27:09;;;;;;;3.08;1.10;;;;;;;20.89;79.01;101154.81;10380830;28;20050;-70
2022/10/18 16:32:10;;;;;;;1.90;1.17;;;;;;;20.66;80.35;101145.50;10377444;28;20084;-71
2022/10/18 16:37:11;;;;;;;5.05;1.00;;;;;;;20.55;81.47;101155.75;10375447;28;20470;-70
2022/10/18 16:42:12;;;;;;;1.58;0.80;;;;;;;20.48;81.28;101166.41;10377290;28;20558;-72
2022/10/18 16:47:14;;;;;;;1.70;1.55;;;;;;;20.27;82.58;101173.13;10387162;28;20451;-72
2022/10/18 16:52:15;;;;;;;2.55;1.58;;;;;;;20.09;83.76;101173.22;10382666;28;20082;-71
2022/10/18 16:57:16;;;;;;;3.83;1.98;;;;;;;20.05;83.54;101176.44;10380576;28;20057;-71
2022/10/18 17:02:18;;;;;;;4.63;2.38;;;;;;;19.88;85.06;101186.34;10382126;28;20068;-73
2022/10/18 17:07:23;;;;;;;4.40;2.38;;;;;;;19.87;84.15;101187.31;10380168;28;20060;-71
2022/10/18 17:12:24;;;;;;;3.10;2.10;;;;;;;19.78;85.05;101198.06;10371867;28;20157;-72
2022/10/18 17:17:26;;;;;;;5.00;2.33;;;;;;;19.68;85.19;101205.44;10387540;28;20049;-73
2022/10/18 17:22:27;;;;;;;3.88;2.53;;;;;;;19.56;86.40;101206.69;10390239;28;20053;-71
2022/10/18 17:27:28;;;;;;;4.18;2.83;;;;;;;19.52;86.81;101208.03;10408990;28;20060;-72
2022/10/18 17:32:30;;;;;;;6.93;3.15;;;;;;;19.44;87.77;101203.41;10409473;28;20053;-71
2022/10/18 17:37:31;;;;;;;6.43;2.90;;;;;;;19.45;87.42;101218.63;10405111;28;20060;-72
2022/10/18 17:42:33;;;;;;;3.55;2.50;;;;;;;19.44;88.16;101225.00;10397501;28;20558;-71
2022/10/18 17:47:35;;;;;;;8.30;4.85;;;;;;;19.47;89.29;101218.47;10385404;28;20634;-72
2022/10/18 17:52:40;;;;;;;7.60;6.18;;;;;;;19.36;89.17;101225.81;10387014;28;20140;-71
2022/10/18 17:57:46;;;;;;;10.35;6.43;;;;;;;19.25;89.08;101221.50;10385168;28;20671;-71
2022/10/18 18:02:48;;;;;;;7.30;5.53;;;;;;;19.24;90.04;101218.97;10403052;28;20457;-70
2022/10/18 18:07:49;;;;;;;5.35;4.57;;;;;;;19.15;90.97;101223.44;10418837;28;20150;-71
2022/10/18 18:12:51;;;;;;;4.95;3.83;;;;;;;19.12;90.59;101231.03;10395557;28;21212;-70
2022/10/18 18:17:52;;;;;;;4.57;3.85;;;;;;;19.01;91.78;101230.25;10397667;28;20502;-70
2022/10/18 18:22:57;;;;;;;6.10;4.28;;;;;;;18.91;91.74;101232.19;10402434;28;20566;-71
2022/10/18 18:28:01;;;;;;;5.30;3.80;;;;;;;18.88;91.74;101229.78;10405788;28;20063;-69
2022/10/18 18:33:07;;;;;;;4.68;3.88;;;;;;;18.87;91.61;101228.09;10420080;28;20283;-69
2022/10/18 18:38:08;;;;;;;7.65;3.65;;;;;;;18.77;91.75;101214.66;10419901;28;20148;-69
2022/10/18 18:43:10;;;;;;;6.15;3.70;;;;;;;18.73;91.05;101224.06;10420090;28;20060;-69
2022/10/18 18:48:25;;;;;;;3.35;3.05;;;;;;;18.68;90.30;101216.44;10395940;28;20053;-70
2022/10/18 18:53:26;;;;;;;4.23;2.93;;;;;;;18.64;89.33;101233.91;10419874;28;20170;-69
2022/10/18 18:58:30;;;;;;;3.38;3.08;;;;;;;18.58;89.65;101223.72;10421303;28;20147;-70
2022/10/18 19:03:31;;;;;;;4.88;4.00;;;;;;;18.53;87.69;101231.44;10420916;28;20040;-67
2022/10/18 19:08:37;;;;;;;4.30;3.90;;;;;;;18.47;88.74;101232.88;10407006;28;20501;-68
2022/10/18 19:13:39;;;;;;;6.05;4.30;;;;;;;18.37;89.41;101230.28;10396842;28;20049;-71
2022/10/18 19:18:41;;;;;;;4.10;3.80;;;;;;;18.35;89.61;101239.50;10421119;28;20048;-70
2022/10/18 19:23:42;;;;;;;5.57;4.13;;;;;;;18.29;90.04;101232.84;10404501;28;20052;-71
2022/10/18 19:28:43;;;;;;;4.55;3.95;;;;;;;18.25;89.81;101239.53;10428028;28;20055;-71
2022/10/18 19:33:45;;;;;;;4.28;3.88;;;;;;;18.30;90.22;101236.38;10418898;28;22080;-69
2022/10/18 19:38:57;;;;;;;5.05;4.50;;;;;;;18.34;89.86;101238.63;10422089;28;20133;-69
2022/10/18 19:43:58;;;;;;;6.15;4.00;;;;;;;18.31;90.02;101228.16;10420775;28;20060;-72
2022/10/18 19:48:59;;;;;;;5.75;4.82;;;;;;;18.24;90.31;101227.06;10398739;28;20372;-69
2022/10/18 19:54:01;;;;;;;7.80;4.63;;;;;;;18.12;89.84;101225.56;10403379;28;20532;-70
2022/10/18 19:59:02;;;;;;;4.40;4.00;;;;;;;18.10;90.88;101222.19;10398379;28;20081;-73
2022/10/18 20:04:06;;;;;;;7.40;5.00;;;;;;;18.19;91.27;101235.63;10419129;28;20132;-73
2022/10/18 20:09:09;;;;;;;6.57;5.43;;;;;;;18.19;90.77;101234.75;10417623;28;20090;-75
2022/10/18 20:14:16;;;;;;;8.30;5.15;;;;;;;18.21;90.15;101238.16;10398786;28;20330;-72
2022/10/18 20:19:17;;;;;;;6.68;5.95;;;;;;;18.20;88.29;101241.84;10389489;28;20116;-73
2022/10/18 20:24:18;;;;;;;8.02;5.35;;;;;;;18.17;88.49;101242.13;10418671;28;20052;-72
2022/10/18 20:29:20;;;;;;;6.25;5.28;;;;;;;18.13;89.21;101241.56;10414265;28;20056;-70
2022/10/18 20:34:24;;;;;;;6.32;5.72;;;;;;;18.13;88.68;101246.13;10415793;28;20592;-69
2022/10/18 20:39:25;;;;;;;6.78;5.70;;;;;;;18.15;87.71;101244.13;10398812;28;20691;-70
2022/10/18 20:44:29;;;;;;;7.43;5.75;;;;;;;17.93;90.93;101235.44;10402109;28;20052;-72
2022/10/18 20:49:30;;;;;;;8.20;5.90;;;;;;;17.91;89.08;101232.03;10395258;28;20151;-71
2022/10/18 20:54:32;;;;;;;6.40;5.18;;;;;;;17.78;89.57;101226.09;10409636;28;20044;-72
2022/10/18 20:59:33;;;;;;;5.78;5.28;;;;;;;17.74;90.38;101235.47;10382563;28;20042;-75
2022/10/18 21:04:34;;;;;;;6.22;5.50;;;;;;;17.55;90.32;101230.97;10412649;28;20040;-72
2022/10/18 21:09:39;;;;;;;9.05;6.30;;;;;;;17.53;90.35;101233.81;10401212;28;20049;-72
2022/10/18 21:14:40;;;;;;;6.45;5.78;;;;;;;17.54;91.60;101240.91;10377471;28;20072;-70
2022/10/18 21:19:41;;;;;;;8.30;5.95;;;;;;;17.30;87.45;101239.53;10380812;28;20044;-73
2022/10/18 21:24:44;;;;;;;6.72;5.53;;;;;;;17.31;87.59;101235.84;10385033;28;20385;-70
2022/10/18 21:29:45;;;;;;;8.55;6.35;;;;;;;17.16;87.52;101237.28;10400193;28;20047;-70
2022/10/18 21:34:46;;;;;;;8.05;6.18;;;;;;;17.08;87.27;101231.75;10381234;28;20052;-70
2022/10/18 21:39:47;;;;;;;8.05;7.25;;;;;;;16.89;84.67;101213.75;10391497;28;20053;-70
2022/10/18 21:44:49;;;;;;;10.40;7.63;;;;;;;16.70;85.83;101214.59;10397830;28;20064;-73
2022/10/18 21:49:51;;;;;;;10.10;7.38;;;;;;;16.70;85.92;101215.44;10398394;28;21068;-72
2022/10/18 21:54:52;;;;;;;8.18;7.07;;;;;;;16.69;84.70;101218.25;10395057;28;20041;-71
2022/10/18 21:59:54;;;;;;;10.18;7.45;;;;;;;16.71;83.16;101211.75;10398047;28;20148;-73
2022/10/18 22:04:55;;;;;;;8.95;7.55;;;;;;;16.60;84.31;101219.94;10396103;28;20044;-70
2022/10/18 22:09:56;;;;;;;9.77;7.47;;;;;;;16.55;82.48;101228.44;10398112;28;20054;-72
2022/10/18 22:14:57;;;;;;;10.88;8.32;;;;;;;16.56;84.22;101216.69;10399121;28;20049;-71
2022/10/18 22:19:59;;;;;;;10.70;8.80;;;;;;;16.45;83.30;101206.06;10421650;28;20055;-72
2022/10/18 22:25:00;;;;;;;12.23;8.35;;;;;;;16.40;84.21;101213.69;10436739;28;20059;-71
2022/10/18 22:30:02;;;;;;;9.80;8.80;;;;;;;16.37;84.19;101217.50;10437851;28;20101;-71
2022/10/18 22:35:03;;;;;;;10.18;8.52;;;;;;;16.37;82.96;101213.97;10444753;28;20049;-73
2022/10/18 22:40:05;;;;;;;10.30;9.25;;;;;;;16.32;83.52;101219.75;10444092;28;20503;-71
2022/10/18 22:45:07;;;;;;;12.85;9.48;;;;;;;16.26;83.28;101213.09;10400095;28;20625;-72
2022/10/18 22:50:09;;;;;;;14.68;9.85;;;;;;;16.24;84.46;101212.41;10398177;28;20640;-73
2022/10/18 22:55:10;;;;;;;11.95;9.98;;;;;;;16.21;83.62;101211.81;10396088;28;20053;-73
2022/10/18 23:00:12;;;;;;;13.63;10.27;;;;;;;16.06;84.08;101205.97;10438241;28;20103;-72
2022/10/18 23:05:13;;;;;;;12.65;9.70;;;;;;;16.06;84.81;101205.97;10437697;28;20048;-72
2022/10/18 23:10:15;;;;;;;11.55;9.77;;;;;;;16.02;85.93;101215.28;10438126;28;20122;-73
2022/10/18 23:15:16;;;;;;;11.77;10.32;;;;;;;16.02;84.76;101213.44;10418046;28;20488;-73
2022/10/18 23:20:17;;;;;;;12.13;10.20;;;;;;;15.93;87.91;101218.75;10397724;28;20053;-72